Time;durP1;ratioP1;P1;durP2;ratioP2;P2;SDS_P1;SDS_P2;PMS_P1;PMS_P2;Temp;Humidity;BMP_temperature;BMP_pressure;BME280_temperature;BME280_humidity;BME280_pressure;Samples;Min_cycle;Max_cycle;Signal;HPM_P1;HPM_P2
2020/12/20 00:00:06;;;;;;;6.13;5.07;;;;;;;6.52;68.19;97041.41;5023778;28;20245;-70
2020/12/20 00:02:32;;;;;;;7.07;5.43;;;;;;;6.44;68.13;97040.78;5013227;28;20244;-71
2020/12/20 00:04:57;;;;;;;7.47;5.63;;;;;;;6.52;68.40;97036.19;5011442;28;20578;-70
2020/12/20 00:07:23;;;;;;;11.03;8.20;;;;;;;6.44;68.79;97032.97;5013108;28;20584;-70
2020/12/20 00:09:48;;;;;;;5.57;5.07;;;;;;;6.56;68.37;97032.22;5009244;28;20215;-70
2020/12/20 00:12:13;;;;;;;6.17;5.07;;;;;;;6.46;68.74;97031.78;5019657;28;20203;-72
2020/12/20 00:14:39;;;;;;;7.60;5.77;;;;;;;6.43;68.72;97028.75;5013099;28;20271;-71
2020/12/20 00:17:08;;;;;;;7.27;5.30;;;;;;;6.38;69.10;97031.94;5012151;28;20219;-70
2020/12/20 00:19:34;;;;;;;11.43;5.40;;;;;;;6.46;68.97;97038.78;5013171;28;20197;-70
2020/12/20 00:22:03;;;;;;;6.90;5.57;;;;;;;6.34;69.52;97035.94;5012629;28;21036;-70
2020/12/20 00:24:29;;;;;;;6.70;5.63;;;;;;;6.43;69.07;97028.75;5004726;28;20214;-70
2020/12/20 00:26:56;;;;;;;7.87;5.67;;;;;;;6.38;69.39;97028.53;5011885;28;20273;-72
2020/12/20 00:29:22;;;;;;;6.73;5.50;;;;;;;6.28;69.85;97026.28;5012655;28;20195;-69
2020/12/20 00:31:48;;;;;;;5.70;5.03;;;;;;;6.31;69.47;97019.88;5011098;28;20203;-70
2020/12/20 00:34:14;;;;;;;7.80;5.50;;;;;;;6.31;69.59;97025.09;5013007;28;20226;-70
2020/12/20 00:36:47;;;;;;;6.53;5.43;;;;;;;6.38;68.93;97026.72;5012723;28;20702;-70
2020/12/20 00:39:14;;;;;;;6.30;5.23;;;;;;;6.47;68.64;97024.75;5011280;28;20314;-71
2020/12/20 00:41:40;;;;;;;6.63;5.30;;;;;;;6.44;69.20;97031.16;5026577;28;20192;-70
2020/12/20 00:44:06;;;;;;;5.97;5.20;;;;;;;6.51;68.54;97028.59;5004958;28;20187;-70
2020/12/20 00:46:36;;;;;;;6.30;4.83;;;;;;;6.52;68.41;97023.16;5011839;28;20187;-71
2020/12/20 00:49:03;;;;;;;6.53;5.70;;;;;;;6.55;68.18;97022.00;5011355;28;20210;-70
2020/12/20 00:51:32;;;;;;;6.43;5.23;;;;;;;6.59;68.29;97023.19;5012179;28;20227;-70
2020/12/20 00:53:58;;;;;;;6.43;5.30;;;;;;;6.45;68.50;97024.97;5011720;28;20532;-70
2020/12/20 00:56:23;;;;;;;6.13;5.53;;;;;;;6.62;68.20;97028.03;5018628;28;20597;-69
2020/12/20 00:58:49;;;;;;;6.63;5.50;;;;;;;6.64;67.84;97029.44;5010988;28;20219;-70
2020/12/20 01:01:16;;;;;;;5.73;4.90;;;;;;;6.51;68.12;97028.59;5012153;28;20190;-69
2020/12/20 01:03:41;;;;;;;6.23;5.60;;;;;;;6.48;68.64;97024.56;5010741;28;20187;-74
2020/12/20 01:06:07;;;;;;;6.33;5.03;;;;;;;6.56;68.38;97021.00;5012172;28;20242;-70
2020/12/20 01:08:32;;;;;;;5.80;5.03;;;;;;;6.55;68.40;97022.78;5012491;28;20179;-71
2020/12/20 01:10:58;;;;;;;5.90;5.30;;;;;;;6.73;68.01;97029.25;5010778;28;20207;-70
2020/12/20 01:13:24;;;;;;;6.10;5.50;;;;;;;6.80;67.43;97011.84;5012333;28;20179;-69
2020/12/20 01:15:49;;;;;;;6.27;5.40;;;;;;;6.77;67.51;97020.84;5011251;28;20575;-70
2020/12/20 01:18:16;;;;;;;6.00;5.40;;;;;;;6.83;67.32;97020.06;5022398;28;20229;-70
2020/12/20 01:20:41;;;;;;;6.00;5.40;;;;;;;6.69;67.58;97021.81;5000871;28;20191;-75
2020/12/20 01:23:07;;;;;;;5.97;5.37;;;;;;;6.68;68.07;97017.63;5011165;28;20232;-70
2020/12/20 01:25:32;;;;;;;7.40;5.50;;;;;;;6.64;68.28;97023.41;5012149;28;20640;-69
2020/12/20 01:27:57;;;;;;;7.87;5.77;;;;;;;6.58;68.49;97027.59;5010857;28;20191;-69
2020/12/20 01:30:23;;;;;;;6.77;5.43;;;;;;;6.44;69.07;97035.56;5011847;28;20179;-69
2020/12/20 01:32:48;;;;;;;8.60;5.60;;;;;;;6.51;68.70;97036.41;5010970;28;20180;-70
2020/12/20 01:35:14;;;;;;;9.07;6.97;;;;;;;6.41;69.01;97035.97;5012056;28;20624;-70
2020/12/20 01:37:39;;;;;;;6.50;5.63;;;;;;;6.59;68.70;97039.63;5011988;28;20179;-71
2020/12/20 01:40:06;;;;;;;6.80;5.93;;;;;;;6.47;69.06;97035.16;5018672;28;20639;-70
2020/12/20 01:42:31;;;;;;;6.50;5.37;;;;;;;6.50;68.66;97024.38;5011877;28;20198;-72
2020/12/20 01:44:57;;;;;;;6.87;5.40;;;;;;;6.38;69.23;97024.13;5013498;28;20195;-70
2020/12/20 01:47:25;;;;;;;7.13;5.60;;;;;;;6.49;68.90;97026.19;5012840;28;20187;-70
2020/12/20 01:49:51;;;;;;;6.47;5.60;;;;;;;6.45;68.94;97024.97;4999865;28;20183;-70
2020/12/20 01:52:17;;;;;;;5.70;5.10;;;;;;;6.48;69.43;97023.75;5011325;28;20206;-70
2020/12/20 01:54:44;;;;;;;6.73;5.53;;;;;;;6.61;68.21;97026.41;5011337;28;20187;-75
2020/12/20 01:57:10;;;;;;;5.47;4.97;;;;;;;6.62;68.19;97033.25;5011126;28;20194;-71
2020/12/20 01:59:36;;;;;;;5.80;5.30;;;;;;;6.58;68.47;97025.00;4996508;28;20175;-70
2020/12/20 02:02:02;;;;;;;6.37;5.30;;;;;;;6.76;67.53;97014.03;5010472;28;20193;-70
2020/12/20 02:04:27;;;;;;;5.50;5.00;;;;;;;6.71;67.46;97018.22;5011553;28;20191;-70
2020/12/20 02:06:53;;;;;;;6.80;5.30;;;;;;;6.59;68.47;97023.19;5010954;28;20620;-71
2020/12/20 02:09:19;;;;;;;6.80;5.57;;;;;;;6.67;68.32;97025.63;5011618;28;20192;-70
2020/12/20 02:11:45;;;;;;;5.90;5.33;;;;;;;6.55;68.30;97024.59;5010372;28;20203;-75
2020/12/20 02:14:10;;;;;;;5.60;5.10;;;;;;;6.72;67.67;97012.03;5010610;28;20190;-69
2020/12/20 02:16:35;;;;;;;5.67;5.10;;;;;;;6.68;67.95;97017.63;5011563;28;20648;-71
2020/12/20 02:19:01;;;;;;;6.10;5.50;;;;;;;6.54;68.78;97012.56;5009905;28;21157;-69
2020/12/20 02:21:26;;;;;;;6.90;5.47;;;;;;;6.36;69.66;97004.47;5011128;28;20179;-69
2020/12/20 02:23:52;;;;;;;5.90;5.03;;;;;;;6.47;69.26;97014.34;5010428;28;20187;-69
2020/12/20 02:26:24;;;;;;;6.37;5.77;;;;;;;6.63;69.13;97014.03;5010331;28;20187;-69
2020/12/20 02:28:52;;;;;;;5.97;5.27;;;;;;;6.59;69.22;97010.19;5010115;28;20192;-69
2020/12/20 02:31:18;;;;;;;8.67;5.73;;;;;;;6.66;68.98;97003.19;5011434;28;20204;-69
2020/12/20 02:33:44;;;;;;;5.83;5.23;;;;;;;6.74;68.70;97002.22;5010498;28;20183;-75
2020/12/20 02:36:10;;;;;;;6.37;5.20;;;;;;;6.60;68.97;97004.78;5010862;28;20187;-69
2020/12/20 02:38:36;;;;;;;5.30;4.80;;;;;;;6.51;69.44;97000.75;5010392;28;20231;-69
2020/12/20 02:41:01;;;;;;;5.83;5.27;;;;;;;6.71;68.53;96998.19;5010003;28;20202;-69
2020/12/20 02:43:27;;;;;;;8.10;5.30;;;;;;;6.77;68.06;96994.00;5011205;28;20589;-71
2020/12/20 02:45:53;;;;;;;5.63;5.07;;;;;;;6.72;68.36;97002.41;5019824;28;20190;-70
2020/12/20 02:48:18;;;;;;;6.03;5.33;;;;;;;6.64;68.76;96998.19;5011617;28;20187;-71
2020/12/20 02:50:44;;;;;;;6.40;5.00;;;;;;;6.69;68.79;97003.59;5010682;28;20207;-75
2020/12/20 02:53:10;;;;;;;6.30;5.33;;;;;;;6.64;68.95;97005.19;5010570;28;20172;-71
2020/12/20 02:55:35;;;;;;;6.03;5.43;;;;;;;6.51;69.39;97005.97;5010721;28;20183;-70
2020/12/20 02:58:01;;;;;;;7.90;5.10;;;;;;;6.64;69.13;97002.56;5009524;28;20190;-70
2020/12/20 03:00:26;;;;;;;6.57;5.03;;;;;;;6.52;69.75;97004.94;5011736;28;20723;-70
2020/12/20 03:02:51;;;;;;;6.03;5.23;;;;;;;6.66;69.02;96998.78;5012854;28;20194;-70
2020/12/20 03:05:19;;;;;;;5.90;5.40;;;;;;;6.41;69.88;96994.31;5014638;28;20191;-70
2020/12/20 03:07:46;;;;;;;6.20;5.40;;;;;;;6.37;70.11;97008.69;5005134;28;20690;-74
2020/12/20 03:10:12;;;;;;;6.20;5.60;;;;;;;6.37;70.24;97003.50;5014204;28;20184;-70
2020/12/20 03:12:38;;;;;;;5.83;5.23;;;;;;;6.54;69.56;97010.78;5014506;28;20636;-69
2020/12/20 03:15:04;;;;;;;6.53;5.43;;;;;;;6.53;69.19;97001.34;5013087;28;20191;-69
2020/12/20 03:17:30;;;;;;;5.73;5.13;;;;;;;6.60;69.26;97010.00;5013965;28;20179;-69
2020/12/20 03:19:55;;;;;;;6.80;5.27;;;;;;;6.62;68.99;97004.59;5012928;28;21171;-70
2020/12/20 03:22:21;;;;;;;6.20;5.60;;;;;;;6.67;68.63;97010.81;5012581;28;20714;-70
2020/12/20 03:24:46;;;;;;;7.43;5.30;;;;;;;6.50;68.99;97009.56;5013903;28;20610;-75
2020/12/20 03:27:11;;;;;;;5.40;4.90;;;;;;;6.38;69.54;97007.69;5012269;28;20190;-69
2020/12/20 03:29:37;;;;;;;7.43;5.60;;;;;;;6.28;70.46;97002.06;5013394;28;20656;-70
2020/12/20 03:32:02;;;;;;;7.40;5.07;;;;;;;6.33;70.46;97010.09;5012368;28;20227;-71
2020/12/20 03:34:28;;;;;;;5.70;4.87;;;;;;;6.26;70.94;97005.66;5013589;28;20552;-69
2020/12/20 03:36:53;;;;;;;7.93;5.93;;;;;;;6.50;70.10;97000.94;5012613;28;20195;-70
2020/12/20 03:39:18;;;;;;;6.07;5.50;;;;;;;6.45;70.20;96996.31;5013884;28;20302;-69
2020/12/20 03:41:44;;;;;;;6.47;5.63;;;;;;;6.51;70.32;96999.94;5013062;28;20317;-70
2020/12/20 03:44:10;;;;;;;7.47;5.67;;;;;;;6.28;70.94;96996.84;5012761;28;20207;-69
2020/12/20 03:46:35;;;;;;;6.30;5.70;;;;;;;6.30;70.62;96992.28;5013605;28;20229;-69
2020/12/20 03:49:00;;;;;;;6.53;5.23;;;;;;;6.33;70.77;96990.06;5012683;28;20184;-68
2020/12/20 03:51:26;;;;;;;7.87;5.43;;;;;;;6.39;70.98;96993.69;5013730;28;20203;-69
2020/12/20 03:53:51;;;;;;;6.63;5.53;;;;;;;6.60;70.56;96994.38;5012620;28;20222;-69
2020/12/20 03:56:16;;;;;;;6.20;5.40;;;;;;;6.32;71.93;96991.06;5013132;28;20190;-69
2020/12/20 03:58:42;;;;;;;6.10;5.50;;;;;;;6.29;72.38;96995.88;5013132;28;20191;-69
2020/12/20 04:01:07;;;;;;;6.67;5.63;;;;;;;6.28;72.62;96996.84;5012763;28;20196;-69
2020/12/20 04:03:32;;;;;;;6.97;5.63;;;;;;;6.48;71.82;96992.50;5013535;28;20194;-69
2020/12/20 04:05:58;;;;;;;6.10;5.10;;;;;;;6.54;71.58;96995.16;5011833;28;20710;-69
2020/12/20 04:08:23;;;;;;;6.67;5.50;;;;;;;6.65;70.95;96993.78;5013675;28;20220;-69
2020/12/20 04:10:49;;;;;;;7.17;5.77;;;;;;;6.46;71.60;96997.94;5012726;28;20199;-73
2020/12/20 04:13:14;;;;;;;6.40;5.47;;;;;;;6.57;70.90;96996.56;5011863;28;20245;-69
2020/12/20 04:15:39;;;;;;;7.50;5.30;;;;;;;6.53;71.07;96988.31;5012989;28;20266;-69
2020/12/20 04:18:05;;;;;;;7.27;5.57;;;;;;;6.59;70.63;96990.16;5010893;28;20210;-69
2020/12/20 04:20:30;;;;;;;7.43;5.30;;;;;;;6.63;70.85;96993.97;5013666;28;20187;-69
2020/12/20 04:22:56;;;;;;;7.47;5.37;;;;;;;6.51;70.49;97003.38;5012019;28;20196;-69
2020/12/20 04:25:21;;;;;;;6.07;5.30;;;;;;;6.59;nan;96997.16;5011572;28;20396;-70
2020/12/20 04:27:48;;;;;;;7.00;5.33;;;;;;;6.68;69.73;97002.00;5012436;28;20195;-73
2020/12/20 04:30:14;;;;;;;6.20;5.60;;;;;;;6.72;69.47;97004.22;5012388;28;20651;-69
2020/12/20 04:32:39;;;;;;;7.30;5.93;;;;;;;6.68;69.55;97001.22;5012488;28;20184;-69
2020/12/20 04:35:05;;;;;;;8.23;5.40;;;;;;;6.63;70.03;97006.22;5011854;28;20558;-69
2020/12/20 04:37:30;;;;;;;6.23;5.50;;;;;;;6.69;69.08;96994.97;5012774;28;20266;-69
2020/12/20 04:39:56;;;;;;;7.10;5.17;;;;;;;6.57;69.51;97004.38;5010457;28;20668;-69
2020/12/20 04:42:21;;;;;;;7.13;5.67;;;;;;;6.54;69.64;96994.34;5012007;28;20731;-69
2020/12/20 04:44:46;;;;;;;7.93;5.60;;;;;;;6.55;69.78;96990.75;5012935;28;20617;-70
2020/12/20 04:47:15;;;;;;;13.33;9.60;;;;;;;6.61;69.52;96995.16;5011737;28;20194;-69
2020/12/20 04:49:44;;;;;;;26.40;13.97;;;;;;;6.71;69.31;96989.56;5011947;28;20211;-70
2020/12/20 04:52:10;;;;;;;10.70;7.70;;;;;;;6.58;69.38;96992.94;5012113;28;20864;-69
2020/12/20 04:54:38;;;;;;;7.37;5.97;;;;;;;6.42;70.44;97001.91;5012451;28;20627;-70
2020/12/20 04:57:05;;;;;;;6.60;5.40;;;;;;;6.41;70.69;97010.72;5011450;28;20257;-70
2020/12/20 04:59:32;;;;;;;8.07;5.63;;;;;;;6.49;70.07;97004.53;5012782;28;20191;-70
2020/12/20 05:01:57;;;;;;;5.70;5.03;;;;;;;6.44;70.46;96996.50;5004928;28;20552;-70
2020/12/20 05:04:23;;;;;;;6.57;5.77;;;;;;;6.49;69.91;97002.75;5012092;28;20183;-69
2020/12/20 05:06:49;;;;;;;6.83;5.37;;;;;;;6.49;70.12;96999.34;5011083;28;20191;-74
2020/12/20 05:09:14;;;;;;;7.27;5.67;;;;;;;6.57;69.34;96999.97;5009697;28;20191;-71
2020/12/20 05:11:41;;;;;;;6.50;5.43;;;;;;;6.55;69.63;96993.34;5011853;28;20242;-69
2020/12/20 05:14:08;;;;;;;6.73;5.43;;;;;;;6.46;70.34;96995.34;5011352;28;20270;-70
2020/12/20 05:16:38;;;;;;;6.00;5.40;;;;;;;6.59;69.89;96984.94;5012032;28;20226;-69
2020/12/20 05:19:07;;;;;;;6.50;5.23;;;;;;;6.47;70.25;96994.31;5011072;28;20214;-69
2020/12/20 05:21:32;;;;;;;6.47;5.47;;;;;;;6.57;69.84;96991.34;5012237;28;20191;-69
2020/12/20 05:23:59;;;;;;;8.47;5.13;;;;;;;6.60;69.84;96999.56;5010905;28;20198;-71
2020/12/20 05:26:29;;;;;;;6.07;5.37;;;;;;;6.68;69.35;96994.19;5010850;28;20179;-71
2020/12/20 05:29:12;;;;;;;7.10;5.00;;;;;;;6.57;69.91;96997.38;5010958;28;20194;-71
2020/12/20 05:31:37;;;;;;;6.07;5.13;;;;;;;6.50;70.02;97006.97;5012222;28;20242;-71
2020/12/20 05:34:03;;;;;;;6.77;5.70;;;;;;;6.55;70.07;97003.75;5001161;28;20611;-71
2020/12/20 05:36:29;;;;;;;8.13;5.17;;;;;;;6.51;69.54;97007.75;5011261;28;20191;-71
2020/12/20 05:39:16;;;;;;;5.43;4.93;;;;;;;6.41;70.13;97002.13;5010340;28;20888;-71
2020/12/20 05:41:43;;;;;;;6.20;5.07;;;;;;;6.55;69.08;96995.94;5012009;28;20187;-71
2020/12/20 05:44:30;;;;;;;5.43;4.87;;;;;;;6.59;69.23;97002.38;5011237;28;20246;-70
2020/12/20 05:46:55;;;;;;;7.17;4.87;;;;;;;6.53;69.20;96995.34;5010782;28;20245;-71
2020/12/20 05:49:22;;;;;;;5.87;5.00;;;;;;;6.46;69.54;97000.53;5012235;28;20183;-71
2020/12/20 05:52:03;;;;;;;6.23;4.47;;;;;;;6.43;69.38;96998.31;5011368;28;20199;-71
2020/12/20 05:54:36;;;;;;;5.50;5.00;;;;;;;6.48;69.27;96993.31;5011586;28;20203;-71
2020/12/20 05:57:14;;;;;;;5.83;4.73;;;;;;;6.54;68.83;96992.53;5010576;28;20204;-71
2020/12/20 05:59:42;;;;;;;6.63;5.50;;;;;;;6.61;68.59;96993.38;5011555;28;20237;-71
2020/12/20 06:02:08;;;;;;;5.43;4.83;;;;;;;6.54;68.97;96984.72;5010628;28;20183;-71
2020/12/20 06:04:35;;;;;;;7.00;5.23;;;;;;;6.51;69.23;96986.94;5011617;28;20187;-70
2020/12/20 06:07:02;;;;;;;5.57;4.93;;;;;;;6.50;69.06;96991.34;5010148;28;20714;-71
2020/12/20 06:09:29;;;;;;;5.17;4.63;;;;;;;6.49;69.46;97001.94;5011494;28;20198;-72
2020/12/20 06:11:57;;;;;;;7.17;4.80;;;;;;;6.26;70.23;96999.66;5010506;28;20560;-75
2020/12/20 06:14:25;;;;;;;7.17;5.07;;;;;;;6.32;70.22;96996.25;5025560;28;20218;-70
2020/12/20 06:17:14;;;;;;;6.00;4.97;;;;;;;6.43;69.60;97008.72;5010865;28;20639;-74
2020/12/20 06:19:48;;;;;;;4.87;4.37;;;;;;;6.50;69.46;97003.53;5011688;28;20211;-71
2020/12/20 06:22:18;;;;;;;6.77;5.20;;;;;;;6.36;69.87;97009.69;5010679;28;20187;-70
2020/12/20 06:24:46;;;;;;;6.70;5.27;;;;;;;6.36;70.25;97013.09;5007278;28;20218;-70
2020/12/20 06:27:14;;;;;;;5.90;5.40;;;;;;;6.25;70.34;97019.66;5009737;28;20806;-70
2020/12/20 06:29:44;;;;;;;6.30;4.83;;;;;;;6.48;69.95;97011.53;5010969;28;20536;-72
2020/12/20 06:32:13;;;;;;;6.07;5.10;;;;;;;6.51;69.58;97018.19;5007124;28;20206;-72
2020/12/20 06:34:40;;;;;;;6.53;5.00;;;;;;;6.47;69.36;97022.94;5000242;28;20655;-71
2020/12/20 06:37:05;;;;;;;5.57;4.97;;;;;;;6.54;69.35;97021.19;5012987;28;20187;-71
2020/12/20 06:39:38;;;;;;;6.50;5.73;;;;;;;6.31;70.03;97018.09;5014706;28;20238;-72
2020/12/20 06:42:04;;;;;;;5.87;5.30;;;;;;;6.43;70.19;97023.53;5013522;28;20183;-71
2020/12/20 06:44:29;;;;;;;6.80;5.43;;;;;;;6.27;70.22;97024.69;4997361;28;20202;-71
2020/12/20 06:46:55;;;;;;;6.10;5.50;;;;;;;6.25;70.60;97024.06;5013677;28;20190;-74
2020/12/20 06:49:32;;;;;;;7.73;5.70;;;;;;;5.97;71.83;97024.13;5014627;28;20196;-71
2020/12/20 06:52:22;;;;;;;6.93;5.50;;;;;;;6.17;71.17;97027.66;5014093;28;20208;-71
2020/12/20 06:55:09;;;;;;;4.87;4.40;;;;;;;6.23;71.01;97026.06;5014776;28;20652;-70
2020/12/20 06:58:04;;;;;;;5.70;5.10;;;;;;;6.19;71.08;97024.81;5014940;28;20194;-69
2020/12/20 07:00:39;;;;;;;5.77;5.27;;;;;;;6.19;70.90;97030.03;5002178;28;20180;-71
2020/12/20 07:03:04;;;;;;;6.17;5.03;;;;;;;6.07;71.39;97022.00;5013483;28;20286;-71
2020/12/20 07:05:33;;;;;;;7.03;5.33;;;;;;;6.03;71.32;97020.75;5014740;28;20680;-71
2020/12/20 07:08:25;;;;;;;6.87;5.50;;;;;;;5.99;72.02;97029.94;5013575;28;20191;-71
2020/12/20 07:10:59;;;;;;;5.77;5.17;;;;;;;6.03;71.42;97036.34;5006119;28;20214;-73
2020/12/20 07:13:37;;;;;;;5.57;5.00;;;;;;;6.00;71.48;97028.16;5005346;28;20622;-71
2020/12/20 07:16:07;;;;;;;6.67;5.63;;;;;;;6.04;71.53;97043.19;5005700;28;20238;-72
2020/12/20 07:18:47;;;;;;;7.87;6.33;;;;;;;5.97;71.71;97037.13;5013867;28;20187;-70
2020/12/20 07:21:18;;;;;;;6.40;5.30;;;;;;;6.03;72.86;97043.34;5006970;28;20172;-69
2020/12/20 07:23:47;;;;;;;8.97;5.43;;;;;;;6.25;72.39;97050.88;5013772;28;20183;-70
2020/12/20 07:26:12;;;;;;;5.63;5.10;;;;;;;7.10;72.20;97049.59;5012268;28;20226;-72
2020/12/20 07:28:38;;;;;;;6.40;5.77;;;;;;;6.93;68.62;97043.13;5013993;28;20184;-70
2020/12/20 07:31:04;;;;;;;6.23;5.50;;;;;;;6.67;68.97;97044.69;5012935;28;20321;-70
2020/12/20 07:33:30;;;;;;;7.40;5.90;;;;;;;6.74;69.16;97044.69;5014027;28;20262;-74
2020/12/20 07:35:55;;;;;;;9.33;6.20;;;;;;;6.56;69.53;97047.03;5012417;28;20226;-77
2020/12/20 07:38:21;;;;;;;5.93;5.17;;;;;;;6.52;69.23;97056.25;5011782;28;20226;-71
2020/12/20 07:40:46;;;;;;;5.97;5.37;;;;;;;6.57;69.76;97052.06;5013985;28;20711;-72
2020/12/20 07:43:12;;;;;;;7.97;5.63;;;;;;;6.62;69.26;97059.28;5012708;28;20183;-74
2020/12/20 07:45:37;;;;;;;6.53;5.30;;;;;;;6.45;69.88;97058.00;5013407;28;20187;-73
2020/12/20 07:48:02;;;;;;;6.13;5.50;;;;;;;6.38;70.29;97055.38;5012495;28;20187;-73
2020/12/20 07:50:29;;;;;;;5.37;4.87;;;;;;;6.42;70.16;97053.16;5013384;28;20546;-75
2020/12/20 07:52:54;;;;;;;5.17;4.60;;;;;;;6.70;69.23;97059.09;4999113;28;20187;-75
2020/12/20 07:55:20;;;;;;;6.30;5.20;;;;;;;6.60;69.83;97053.44;5012518;28;20591;-75
2020/12/20 07:57:47;;;;;;;6.77;5.67;;;;;;;6.66;69.29;97058.69;5013266;28;20183;-75
2020/12/20 08:00:14;;;;;;;7.07;5.33;;;;;;;6.55;69.71;97061.84;5012436;28;20226;-74
2020/12/20 08:02:40;;;;;;;8.47;6.40;;;;;;;6.61;69.42;97061.09;5013573;28;20202;-74
2020/12/20 08:05:06;;;;;;;16.30;9.80;;;;;;;6.69;70.17;97062.69;5012665;28;20543;-75
2020/12/20 08:07:32;;;;;;;12.50;8.83;;;;;;;6.72;69.47;97066.72;5017250;28;20969;-76
2020/12/20 08:09:58;;;;;;;7.20;6.43;;;;;;;6.59;69.93;97067.47;5010471;28;20187;-75
2020/12/20 08:12:24;;;;;;;7.03;6.33;;;;;;;6.87;69.24;97070.78;5013235;28;20193;-76
2020/12/20 08:15:08;;;;;;;8.93;6.10;;;;;;;6.90;68.92;97069.59;5013163;28;20278;-76
2020/12/20 08:17:37;;;;;;;11.27;7.37;;;;;;;6.87;69.36;97073.38;5005155;28;20175;-77
2020/12/20 08:20:06;;;;;;;26.80;13.93;;;;;;;6.84;69.65;97067.78;5012363;28;20194;-75
2020/12/20 08:22:33;;;;;;;22.90;11.57;;;;;;;6.71;69.96;97072.94;5004107;28;20211;-77
2020/12/20 08:25:07;;;;;;;15.57;9.27;;;;;;;6.68;70.15;97067.13;5012166;28;20270;-74
2020/12/20 08:27:33;;;;;;;16.87;8.63;;;;;;;6.75;70.69;97069.72;5019582;28;20191;-76
2020/12/20 08:30:04;;;;;;;22.40;13.33;;;;;;;6.89;69.96;97073.19;5000924;28;20195;-76
2020/12/20 08:32:36;;;;;;;25.83;11.33;;;;;;;6.93;69.82;97080.41;5005538;28;20591;-76
2020/12/20 08:35:20;;;;;;;16.67;9.17;;;;;;;6.87;69.88;97075.19;5012096;28;20183;-75
2020/12/20 08:37:54;;;;;;;13.03;8.47;;;;;;;6.96;69.67;97069.63;5013004;28;20191;-76
2020/12/20 08:40:20;;;;;;;21.60;10.73;;;;;;;7.05;69.97;97073.63;5011448;28;20735;-75
2020/12/20 08:42:47;;;;;;;17.73;9.33;;;;;;;7.03;69.63;97078.22;5012869;28;20314;-75
2020/12/20 08:45:17;;;;;;;24.63;12.43;;;;;;;7.09;69.59;97068.81;5011576;28;20227;-75
2020/12/20 08:47:44;;;;;;;11.33;8.07;;;;;;;7.05;69.91;97072.84;5012839;28;20211;-75
2020/12/20 08:50:10;;;;;;;18.60;11.13;;;;;;;7.15;69.45;97080.25;5011979;28;20189;-76
2020/12/20 08:52:36;;;;;;;9.07;6.80;;;;;;;7.04;70.06;97079.84;5007716;28;20556;-75
2020/12/20 08:55:04;;;;;;;11.17;7.60;;;;;;;7.12;69.88;97075.47;5010752;28;20286;-76
2020/12/20 08:57:31;;;;;;;9.40;7.20;;;;;;;7.25;69.33;97078.06;5007608;28;20206;-76
2020/12/20 09:00:09;;;;;;;7.50;6.30;;;;;;;7.29;68.93;97074.09;5007123;28;20194;-76
2020/12/20 09:02:34;;;;;;;7.07;6.37;;;;;;;7.22;69.10;97068.84;5021728;28;20586;-76
2020/12/20 09:05:02;;;;;;;7.37;6.50;;;;;;;7.14;69.66;97073.44;5011304;28;20183;-76
2020/12/20 09:07:40;;;;;;;6.57;5.90;;;;;;;7.09;69.71;97067.03;5012208;28;20184;-76
2020/12/20 09:10:27;;;;;;;6.47;5.40;;;;;;;7.07;69.79;97078.66;5002170;28;20179;-77
2020/12/20 09:12:56;;;;;;;7.20;5.87;;;;;;;7.27;69.41;97078.69;5011796;28;20193;-76
2020/12/20 09:15:23;;;;;;;6.43;5.80;;;;;;;7.37;68.84;97076.50;5011037;28;20179;-77
2020/12/20 09:17:50;;;;;;;6.17;5.53;;;;;;;7.35;69.04;97074.09;5012146;28;20215;-75
2020/12/20 09:20:18;;;;;;;6.27;5.67;;;;;;;7.39;68.82;97080.53;5011220;28;20179;-74
2020/12/20 09:22:51;;;;;;;6.20;5.57;;;;;;;7.22;69.52;97078.47;5011630;28;20245;-75
2020/12/20 09:25:35;;;;;;;6.13;5.53;;;;;;;7.61;68.22;97082.94;5009355;28;20258;-74
2020/12/20 09:28:09;;;;;;;6.47;5.83;;;;;;;7.75;68.03;97084.53;5011239;28;20195;-75
2020/12/20 09:30:35;;;;;;;7.47;5.37;;;;;;;7.91;67.19;97078.94;5011449;28;20167;-75
2020/12/20 09:33:01;;;;;;;7.50;6.37;;;;;;;8.03;67.32;97073.88;5011250;28;20187;-77
2020/12/20 09:35:26;;;;;;;7.30;6.23;;;;;;;8.23;66.78;97072.03;5010728;28;20717;-74
2020/12/20 09:37:53;;;;;;;15.87;8.30;;;;;;;8.33;67.48;97082.91;5009048;28;20230;-75
2020/12/20 09:40:19;;;;;;;13.43;8.23;;;;;;;8.23;67.29;97085.09;4989153;28;20224;-75
2020/12/20 09:42:45;;;;;;;12.17;7.33;;;;;;;8.22;66.77;97084.28;4967458;28;20563;-74
2020/12/20 09:45:12;;;;;;;8.70;6.03;;;;;;;8.20;67.14;97090.72;4971584;28;20247;-74
2020/12/20 09:47:42;;;;;;;5.93;5.30;;;;;;;8.46;66.62;97085.47;4972741;28;20192;-73
2020/12/20 09:50:08;;;;;;;6.60;5.90;;;;;;;8.53;66.19;97077.59;4971370;28;20179;-75
2020/12/20 09:52:34;;;;;;;6.50;5.90;;;;;;;8.55;66.91;97084.25;4970919;28;20658;-75
2020/12/20 09:55:00;;;;;;;6.53;5.63;;;;;;;8.66;67.43;97080.97;4971516;28;20196;-74
2020/12/20 09:57:26;;;;;;;10.20;6.33;;;;;;;8.73;67.88;97078.34;4972257;28;20189;-74
2020/12/20 09:59:52;;;;;;;6.77;5.80;;;;;;;8.73;66.04;97076.53;4972407;28;20180;-74
2020/12/20 10:02:17;;;;;;;6.63;5.87;;;;;;;8.74;66.93;97085.19;4971404;28;20679;-74
2020/12/20 10:04:43;;;;;;;6.90;5.97;;;;;;;8.65;67.36;97081.19;4959789;28;20195;-75
2020/12/20 10:07:08;;;;;;;7.07;5.90;;;;;;;8.72;66.86;97089.81;4971296;28;20648;-75
2020/12/20 10:09:34;;;;;;;7.00;5.67;;;;;;;8.66;66.39;97082.78;4987950;28;20259;-74
2020/12/20 10:11:59;;;;;;;5.80;4.90;;;;;;;8.71;65.34;97081.16;4975760;28;20218;-74
2020/12/20 10:14:25;;;;;;;6.13;5.40;;;;;;;8.82;65.42;97073.69;4975954;28;20272;-74
2020/12/20 10:16:54;;;;;;;6.27;5.13;;;;;;;8.92;64.85;97079.25;4975951;28;20188;-74
2020/12/20 10:19:19;;;;;;;5.50;4.87;;;;;;;8.99;64.12;97083.44;4974188;28;20223;-75
2020/12/20 10:21:51;;;;;;;6.10;5.20;;;;;;;9.12;63.50;97080.78;4976222;28;20220;-75
2020/12/20 10:24:18;;;;;;;6.10;5.10;;;;;;;8.97;63.31;97082.84;4975298;28;20299;-75
2020/12/20 10:26:44;;;;;;;6.40;5.80;;;;;;;9.06;63.47;97078.19;4975544;28;20180;-75
2020/12/20 10:29:13;;;;;;;5.97;5.37;;;;;;;9.02;63.64;97082.25;4975431;28;20192;-75
2020/12/20 10:31:39;;;;;;;6.43;5.73;;;;;;;8.84;64.63;97079.50;4975470;28;20211;-75
2020/12/20 10:34:05;;;;;;;6.33;5.30;;;;;;;8.94;63.52;97082.47;4975191;28;20188;-75
2020/12/20 10:36:30;;;;;;;5.60;5.10;;;;;;;9.14;62.98;97085.78;4976132;28;20177;-75
2020/12/20 10:38:55;;;;;;;6.27;5.20;;;;;;;9.00;63.23;97095.50;4991284;28;20237;-74
2020/12/20 10:41:21;;;;;;;6.27;5.50;;;;;;;9.18;63.14;97092.22;4975721;28;20208;-74
2020/12/20 10:43:46;;;;;;;6.07;5.33;;;;;;;9.12;63.26;97082.59;4990647;28;20180;-74
2020/12/20 10:46:12;;;;;;;5.70;5.10;;;;;;;9.04;64.05;97082.81;4975029;28;20184;-75
2020/12/20 10:48:37;;;;;;;7.43;5.53;;;;;;;9.01;63.89;97088.47;4975396;28;20656;-74
2020/12/20 10:51:03;;;;;;;8.67;5.30;;;;;;;9.09;63.68;97080.38;4973596;28;20193;-75
2020/12/20 10:53:28;;;;;;;6.00;5.40;;;;;;;9.24;63.32;97077.50;4975493;28;20681;-74
2020/12/20 10:55:54;;;;;;;6.13;4.90;;;;;;;9.17;63.19;97074.91;4974348;28;20215;-75
2020/12/20 10:58:19;;;;;;;5.13;4.63;;;;;;;9.24;62.68;97069.66;4966626;28;20177;-75
2020/12/20 11:00:45;;;;;;;5.00;4.50;;;;;;;9.40;62.63;97069.94;4968610;28;20191;-74
2020/12/20 11:03:10;;;;;;;5.10;4.60;;;;;;;9.54;61.85;97075.88;4974460;28;20196;-76
2020/12/20 11:05:36;;;;;;;5.73;4.90;;;;;;;9.70;61.21;97080.56;4968231;28;20189;-76
2020/12/20 11:08:01;;;;;;;6.73;4.60;;;;;;;9.86;60.88;97079.25;4974902;28;20196;-76
2020/12/20 11:10:27;;;;;;;5.70;4.87;;;;;;;9.92;60.59;97075.75;4974913;28;20195;-75
2020/12/20 11:12:52;;;;;;;5.63;4.53;;;;;;;10.03;60.19;97078.47;4974533;28;20227;-75
2020/12/20 11:15:18;;;;;;;4.87;4.30;;;;;;;10.28;59.64;97081.09;4972241;28;20177;-76
2020/12/20 11:17:45;;;;;;;5.07;4.50;;;;;;;10.38;59.68;97076.16;4968421;28;20275;-76
2020/12/20 11:20:11;;;;;;;5.97;4.50;;;;;;;10.26;60.85;97069.22;4974359;28;20224;-76
2020/12/20 11:22:36;;;;;;;5.50;4.80;;;;;;;10.53;60.72;97067.94;4974416;28;20215;-76
2020/12/20 11:25:02;;;;;;;5.27;4.77;;;;;;;10.40;61.01;97068.88;4974684;28;20193;-75
2020/12/20 11:27:27;;;;;;;5.97;5.37;;;;;;;10.42;61.62;97069.44;4974052;28;20533;-75
2020/12/20 11:29:53;;;;;;;6.37;4.87;;;;;;;10.63;61.52;97065.59;4975178;28;20637;-75
2020/12/20 11:32:19;;;;;;;6.00;5.30;;;;;;;10.78;60.39;97062.59;4988899;28;20207;-75
2020/12/20 11:34:44;;;;;;;7.00;5.20;;;;;;;10.82;60.79;97058.50;4968475;28;20192;-76
2020/12/20 11:37:10;;;;;;;7.07;5.37;;;;;;;10.96;60.57;97056.53;4974112;28;20276;-75
2020/12/20 11:39:35;;;;;;;6.17;5.50;;;;;;;10.92;61.72;97058.00;4993460;28;20302;-75
2020/12/20 11:42:01;;;;;;;6.43;5.77;;;;;;;10.81;62.01;97062.16;5012970;28;20187;-75